sensor_id;sensor_type;location;lat;lon;timestamp;temperature;humidity
9640;DHT22;51745;50.872;4.732;2023-02-01T00:02:45;6.40;99.90
9640;DHT22;51745;50.872;4.732;2023-02-01T00:05:33;6.30;99.90
9640;DHT22;51745;50.872;4.732;2023-02-01T00:08:21;6.30;99.90
9640;DHT22;51745;50.872;4.732;2023-02-01T00:11:13;6.40;99.90
9640;DHT22;51745;50.872;4.732;2023-02-01T00:14:06;6.50;99.90
9640;DHT22;51745;50.872;4.732;2023-02-01T00:16:54;6.90;99.90
9640;DHT22;51745;50.872;4.732;2023-02-01T00:19:42;6.60;99.90
9640;DHT22;51745;50.872;4.732;2023-02-01T00:22:42;6.50;99.90
9640;DHT22;51745;50.872;4.732;2023-02-01T00:25:31;6.50;99.90
9640;DHT22;51745;50.872;4.732;2023-02-01T00:28:20;6.50;99.90
9640;DHT22;51745;50.872;4.732;2023-02-01T00:31:12;6.50;99.90
9640;DHT22;51745;50.872;4.732;2023-02-01T00:34:03;8.90;99.90
9640;DHT22;51745;50.872;4.732;2023-02-01T00:36:54;8.90;99.90
9640;DHT22;51745;50.872;4.732;2023-02-01T00:39:42;6.60;99.90
9640;DHT22;51745;50.872;4.732;2023-02-01T00:42:31;8.20;99.90
9640;DHT22;51745;50.872;4.732;2023-02-01T00:45:42;6.80;99.90
9640;DHT22;51745;50.872;4.732;2023-02-01T00:48:33;6.50;99.90
9640;DHT22;51745;50.872;4.732;2023-02-01T00:51:22;6.50;99.90
9640;DHT22;51745;50.872;4.732;2023-02-01T00:54:12;6.50;99.90
9640;DHT22;51745;50.872;4.732;2023-02-01T00:57:01;6.60;99.90
9640;DHT22;51745;50.872;4.732;2023-02-01T00:59:58;6.50;99.90
9640;DHT22;51745;50.872;4.732;2023-02-01T01:02:47;6.50;99.90
9640;DHT22;51745;50.872;4.732;2023-02-01T01:05:36;4.40;99.90
9640;DHT22;51745;50.872;4.732;2023-02-01T01:08:24;6.50;99.90
9640;DHT22;51745;50.872;4.732;2023-02-01T01:11:12;6.50;99.90
9640;DHT22;51745;50.872;4.732;2023-02-01T01:14:02;6.50;99.90
9640;DHT22;51745;50.872;4.732;2023-02-01T01:16:54;6.80;99.90
9640;DHT22;51745;50.872;4.732;2023-02-01T01:19:43;4.40;99.90
9640;DHT22;51745;50.872;4.732;2023-02-01T01:22:32;6.60;99.90
9640;DHT22;51745;50.872;4.732;2023-02-01T01:25:22;6.40;99.90
9640;DHT22;51745;50.872;4.732;2023-02-01T01:28:10;8.30;99.90
9640;DHT22;51745;50.872;4.732;2023-02-01T01:30:58;6.70;99.90
9640;DHT22;51745;50.872;4.732;2023-02-01T01:33:47;6.50;99.90
9640;DHT22;51745;50.872;4.732;2023-02-01T01:36:44;6.90;99.90
9640;DHT22;51745;50.872;4.732;2023-02-01T01:39:33;6.50;99.90
9640;DHT22;51745;50.872;4.732;2023-02-01T01:42:24;6.50;99.90
9640;DHT22;51745;50.872;4.732;2023-02-01T01:45:19;4.30;99.90
9640;DHT22;51745;50.872;4.732;2023-02-01T01:48:09;6.50;99.90
9640;DHT22;51745;50.872;4.732;2023-02-01T01:50:59;6.50;99.90
9640;DHT22;51745;50.872;4.732;2023-02-01T01:53:53;8.30;99.90
9640;DHT22;51745;50.872;4.732;2023-02-01T01:56:48;5.20;99.90
9640;DHT22;51745;50.872;4.732;2023-02-01T01:59:41;6.50;99.90
9640;DHT22;51745;50.872;4.732;2023-02-01T02:02:33;6.50;99.90
9640;DHT22;51745;50.872;4.732;2023-02-01T02:05:23;6.40;99.90
9640;DHT22;51745;50.872;4.732;2023-02-01T02:08:11;6.50;99.90
9640;DHT22;51745;50.872;4.732;2023-02-01T02:10:59;6.50;99.90
9640;DHT22;51745;50.872;4.732;2023-02-01T02:13:49;6.70;99.90
9640;DHT22;51745;50.872;4.732;2023-02-01T02:16:40;6.50;99.90
9640;DHT22;51745;50.872;4.732;2023-02-01T02:22:44;7.30;99.90
9640;DHT22;51745;50.872;4.732;2023-02-01T02:25:56;6.50;99.90
9640;DHT22;51745;50.872;4.732;2023-02-01T02:31:58;6.50;99.90
9640;DHT22;51745;50.872;4.732;2023-02-01T02:34:56;7.20;99.90
9640;DHT22;51745;50.872;4.732;2023-02-01T02:37:50;6.30;99.90
9640;DHT22;51745;50.872;4.732;2023-02-01T02:40:42;6.20;99.90
9640;DHT22;51745;50.872;4.732;2023-02-01T02:43:35;5.40;99.90
9640;DHT22;51745;50.872;4.732;2023-02-01T02:46:44;5.90;99.90
9640;DHT22;51745;50.872;4.732;2023-02-01T02:49:52;6.30;99.90
9640;DHT22;51745;50.872;4.732;2023-02-01T02:53:00;5.90;99.90
9640;DHT22;51745;50.872;4.732;2023-02-01T02:56:07;5.90;99.90
9640;DHT22;51745;50.872;4.732;2023-02-01T02:59:14;6.30;99.90
9640;DHT22;51745;50.872;4.732;2023-02-01T03:02:21;6.00;99.90
9640;DHT22;51745;50.872;4.732;2023-02-01T03:05:32;6.00;99.90
9640;DHT22;51745;50.872;4.732;2023-02-01T03:08:24;6.00;99.90
9640;DHT22;51745;50.872;4.732;2023-02-01T03:11:13;5.80;99.90
9640;DHT22;51745;50.872;4.732;2023-02-01T03:14:02;5.90;99.90
9640;DHT22;51745;50.872;4.732;2023-02-01T03:16:56;3.90;99.90
9640;DHT22;51745;50.872;4.732;2023-02-01T03:19:45;6.10;99.90
9640;DHT22;51745;50.872;4.732;2023-02-01T03:22:36;6.00;99.90
9640;DHT22;51745;50.872;4.732;2023-02-01T03:25:28;6.10;99.90
9640;DHT22;51745;50.872;4.732;2023-02-01T03:28:22;5.90;99.90
9640;DHT22;51745;50.872;4.732;2023-02-01T03:31:16;6.10;99.90
9640;DHT22;51745;50.872;4.732;2023-02-01T03:34:05;6.40;99.90
9640;DHT22;51745;50.872;4.732;2023-02-01T03:36:56;6.10;99.90
9640;DHT22;51745;50.872;4.732;2023-02-01T03:39:49;6.00;99.90
9640;DHT22;51745;50.872;4.732;2023-02-01T03:42:43;6.20;99.90
9640;DHT22;51745;50.872;4.732;2023-02-01T03:45:35;6.00;99.90
9640;DHT22;51745;50.872;4.732;2023-02-01T03:48:25;7.40;99.90
9640;DHT22;51745;50.872;4.732;2023-02-01T03:51:15;5.90;99.90
9640;DHT22;51745;50.872;4.732;2023-02-01T03:54:06;5.80;99.90
9640;DHT22;51745;50.872;4.732;2023-02-01T03:56:55;5.80;99.90
9640;DHT22;51745;50.872;4.732;2023-02-01T03:59:46;5.80;99.90
9640;DHT22;51745;50.872;4.732;2023-02-01T04:02:36;5.80;99.90
9640;DHT22;51745;50.872;4.732;2023-02-01T04:05:25;5.80;99.90
9640;DHT22;51745;50.872;4.732;2023-02-01T04:08:21;5.60;99.90
9640;DHT22;51745;50.872;4.732;2023-02-01T04:11:16;5.70;99.90
9640;DHT22;51745;50.872;4.732;2023-02-01T04:14:07;5.50;99.90
9640;DHT22;51745;50.872;4.732;2023-02-01T04:16:56;5.50;99.90
9640;DHT22;51745;50.872;4.732;2023-02-01T04:19:47;5.30;99.90
9640;DHT22;51745;50.872;4.732;2023-02-01T04:22:37;5.50;99.90
9640;DHT22;51745;50.872;4.732;2023-02-01T04:25:29;5.40;99.90
9640;DHT22;51745;50.872;4.732;2023-02-01T04:28:18;5.30;99.90
9640;DHT22;51745;50.872;4.732;2023-02-01T04:31:07;5.30;99.90
9640;DHT22;51745;50.872;4.732;2023-02-01T04:33:56;5.30;99.90
9640;DHT22;51745;50.872;4.732;2023-02-01T04:36:45;5.30;99.90
9640;DHT22;51745;50.872;4.732;2023-02-01T04:39:33;5.30;99.90
9640;DHT22;51745;50.872;4.732;2023-02-01T04:42:29;5.40;99.90
9640;DHT22;51745;50.872;4.732;2023-02-01T04:45:17;8.10;99.90
9640;DHT22;51745;50.872;4.732;2023-02-01T04:48:05;5.30;99.90
9640;DHT22;51745;50.872;4.732;2023-02-01T04:50:55;5.20;99.90
9640;DHT22;51745;50.872;4.732;2023-02-01T04:53:44;5.20;99.90
9640;DHT22;51745;50.872;4.732;2023-02-01T04:56:32;5.30;99.90
9640;DHT22;51745;50.872;4.732;2023-02-01T04:59:21;6.10;99.90
9640;DHT22;51745;50.872;4.732;2023-02-01T05:02:11;5.40;99.90
9640;DHT22;51745;50.872;4.732;2023-02-01T05:05:09;5.00;99.90
9640;DHT22;51745;50.872;4.732;2023-02-01T05:08:02;5.20;99.90
9640;DHT22;51745;50.872;4.732;2023-02-01T05:10:50;5.00;99.90
9640;DHT22;51745;50.872;4.732;2023-02-01T05:13:38;5.00;99.90
9640;DHT22;51745;50.872;4.732;2023-02-01T05:16:36;5.00;99.90
9640;DHT22;51745;50.872;4.732;2023-02-01T05:19:31;4.90;99.90
9640;DHT22;51745;50.872;4.732;2023-02-01T05:22:20;6.10;99.90
9640;DHT22;51745;50.872;4.732;2023-02-01T05:25:09;5.00;99.90
9640;DHT22;51745;50.872;4.732;2023-02-01T05:27:58;5.30;99.90
9640;DHT22;51745;50.872;4.732;2023-02-01T05:30:46;4.90;99.90
9640;DHT22;51745;50.872;4.732;2023-02-01T05:33:35;5.00;99.90
9640;DHT22;51745;50.872;4.732;2023-02-01T05:36:23;5.10;99.90
9640;DHT22;51745;50.872;4.732;2023-02-01T05:39:11;5.10;99.90
9640;DHT22;51745;50.872;4.732;2023-02-01T05:42:04;4.90;99.90
9640;DHT22;51745;50.872;4.732;2023-02-01T05:44:52;4.90;99.90
9640;DHT22;51745;50.872;4.732;2023-02-01T05:47:39;4.80;99.90
9640;DHT22;51745;50.872;4.732;2023-02-01T05:50:27;6.40;99.90
9640;DHT22;51745;50.872;4.732;2023-02-01T05:53:15;4.70;99.90
9640;DHT22;51745;50.872;4.732;2023-02-01T05:56:04;2.70;99.90
9640;DHT22;51745;50.872;4.732;2023-02-01T05:58:53;3.90;99.90
9640;DHT22;51745;50.872;4.732;2023-02-01T06:01:42;4.90;99.90
9640;DHT22;51745;50.872;4.732;2023-02-01T06:04:32;4.70;99.90
9640;DHT22;51745;50.872;4.732;2023-02-01T06:07:20;4.60;99.90
9640;DHT22;51745;50.872;4.732;2023-02-01T06:10:08;4.60;99.90
9640;DHT22;51745;50.872;4.732;2023-02-01T06:13:00;4.70;99.90
9640;DHT22;51745;50.872;4.732;2023-02-01T06:15:51;4.70;99.90
9640;DHT22;51745;50.872;4.732;2023-02-01T06:18:43;4.70;99.90
9640;DHT22;51745;50.872;4.732;2023-02-01T06:21:31;5.10;99.90
9640;DHT22;51745;50.872;4.732;2023-02-01T06:24:20;4.70;99.90
9640;DHT22;51745;50.872;4.732;2023-02-01T06:27:08;5.10;99.90
9640;DHT22;51745;50.872;4.732;2023-02-01T06:29:57;4.60;99.90
9640;DHT22;51745;50.872;4.732;2023-02-01T06:32:49;4.60;99.90
9640;DHT22;51745;50.872;4.732;2023-02-01T06:35:39;4.60;99.90
9640;DHT22;51745;50.872;4.732;2023-02-01T06:38:28;4.60;99.90
9640;DHT22;51745;50.872;4.732;2023-02-01T06:41:16;4.70;99.90
9640;DHT22;51745;50.872;4.732;2023-02-01T06:44:07;3.80;99.90
9640;DHT22;51745;50.872;4.732;2023-02-01T06:46:55;4.60;99.90
9640;DHT22;51745;50.872;4.732;2023-02-01T06:49:46;4.60;99.90
9640;DHT22;51745;50.872;4.732;2023-02-01T06:52:33;5.10;99.90
9640;DHT22;51745;50.872;4.732;2023-02-01T06:55:21;4.70;99.90
9640;DHT22;51745;50.872;4.732;2023-02-01T06:58:15;4.70;99.90
9640;DHT22;51745;50.872;4.732;2023-02-01T07:01:08;3.40;99.90
9640;DHT22;51745;50.872;4.732;2023-02-01T07:03:57;4.70;99.90
9640;DHT22;51745;50.872;4.732;2023-02-01T07:06:48;4.50;99.90
9640;DHT22;51745;50.872;4.732;2023-02-01T07:09:36;4.40;99.90
9640;DHT22;51745;50.872;4.732;2023-02-01T07:12:25;7.30;99.90
9640;DHT22;51745;50.872;4.732;2023-02-01T07:15:13;4.40;99.90
9640;DHT22;51745;50.872;4.732;2023-02-01T07:18:01;4.40;99.90
9640;DHT22;51745;50.872;4.732;2023-02-01T07:20:49;4.30;99.90
9640;DHT22;51745;50.872;4.732;2023-02-01T07:23:39;4.30;99.90
9640;DHT22;51745;50.872;4.732;2023-02-01T07:26:27;5.70;99.90
9640;DHT22;51745;50.872;4.732;2023-02-01T07:29:15;4.10;99.90
9640;DHT22;51745;50.872;4.732;2023-02-01T07:32:03;4.30;99.90
9640;DHT22;51745;50.872;4.732;2023-02-01T07:34:50;4.20;99.90
9640;DHT22;51745;50.872;4.732;2023-02-01T07:37:39;5.50;99.90
9640;DHT22;51745;50.872;4.732;2023-02-01T07:40:29;6.10;99.90
9640;DHT22;51745;50.872;4.732;2023-02-01T07:43:17;4.20;99.90
9640;DHT22;51745;50.872;4.732;2023-02-01T07:46:06;4.20;99.90
9640;DHT22;51745;50.872;4.732;2023-02-01T07:48:55;4.30;99.90
9640;DHT22;51745;50.872;4.732;2023-02-01T07:51:48;4.30;99.90
9640;DHT22;51745;50.872;4.732;2023-02-01T07:54:36;4.30;99.90
9640;DHT22;51745;50.872;4.732;2023-02-01T07:57:29;4.40;99.90
9640;DHT22;51745;50.872;4.732;2023-02-01T08:00:22;4.40;99.90
9640;DHT22;51745;50.872;4.732;2023-02-01T08:03:30;4.40;99.90
9640;DHT22;51745;50.872;4.732;2023-02-01T08:06:18;4.40;99.90
9640;DHT22;51745;50.872;4.732;2023-02-01T08:09:08;4.50;99.90
9640;DHT22;51745;50.872;4.732;2023-02-01T08:11:57;4.60;99.90
9640;DHT22;51745;50.872;4.732;2023-02-01T08:14:49;4.70;99.90
9640;DHT22;51745;50.872;4.732;2023-02-01T08:17:37;4.90;99.90
9640;DHT22;51745;50.872;4.732;2023-02-01T08:20:24;4.80;99.90
9640;DHT22;51745;50.872;4.732;2023-02-01T08:23:13;4.90;99.90
9640;DHT22;51745;50.872;4.732;2023-02-01T08:26:08;4.90;99.90
9640;DHT22;51745;50.872;4.732;2023-02-01T08:28:57;5.00;99.90
9640;DHT22;51745;50.872;4.732;2023-02-01T08:31:47;5.00;99.90
9640;DHT22;51745;50.872;4.732;2023-02-01T08:34:37;5.10;99.90
9640;DHT22;51745;50.872;4.732;2023-02-01T08:37:25;5.10;99.90
9640;DHT22;51745;50.872;4.732;2023-02-01T08:40:13;5.10;99.90
9640;DHT22;51745;50.872;4.732;2023-02-01T08:43:04;5.20;99.90
9640;DHT22;51745;50.872;4.732;2023-02-01T08:45:53;5.30;99.90
9640;DHT22;51745;50.872;4.732;2023-02-01T08:48:44;5.30;99.90
9640;DHT22;51745;50.872;4.732;2023-02-01T08:51:32;5.30;99.90
9640;DHT22;51745;50.872;4.732;2023-02-01T08:54:21;3.50;99.90
9640;DHT22;51745;50.872;4.732;2023-02-01T08:57:08;6.00;99.90
9640;DHT22;51745;50.872;4.732;2023-02-01T08:59:57;5.40;99.90
9640;DHT22;51745;50.872;4.732;2023-02-01T09:02:45;6.60;99.90
9640;DHT22;51745;50.872;4.732;2023-02-01T09:05:35;5.70;99.90
9640;DHT22;51745;50.872;4.732;2023-02-01T09:08:34;5.60;99.90
9640;DHT22;51745;50.872;4.732;2023-02-01T09:11:26;5.60;99.90
9640;DHT22;51745;50.872;4.732;2023-02-01T09:14:16;5.80;99.90
9640;DHT22;51745;50.872;4.732;2023-02-01T09:17:04;5.60;99.90
9640;DHT22;51745;50.872;4.732;2023-02-01T09:19:55;5.60;99.90
9640;DHT22;51745;50.872;4.732;2023-02-01T09:22:48;6.70;99.90
9640;DHT22;51745;50.872;4.732;2023-02-01T09:25:37;5.70;99.90
9640;DHT22;51745;50.872;4.732;2023-02-01T09:28:25;6.80;99.90
9640;DHT22;51745;50.872;4.732;2023-02-01T09:31:12;5.60;99.90
9640;DHT22;51745;50.872;4.732;2023-02-01T09:34:03;5.60;99.90
9640;DHT22;51745;50.872;4.732;2023-02-01T09:36:52;7.70;99.90
9640;DHT22;51745;50.872;4.732;2023-02-01T09:39:45;5.60;99.90
9640;DHT22;51745;50.872;4.732;2023-02-01T09:42:42;6.00;99.90
9640;DHT22;51745;50.872;4.732;2023-02-01T09:45:36;5.80;99.90
9640;DHT22;51745;50.872;4.732;2023-02-01T09:48:29;5.70;99.90
9640;DHT22;51745;50.872;4.732;2023-02-01T09:51:19;6.10;99.90
9640;DHT22;51745;50.872;4.732;2023-02-01T09:54:11;6.10;99.90
9640;DHT22;51745;50.872;4.732;2023-02-01T09:57:04;5.90;99.90
9640;DHT22;51745;50.872;4.732;2023-02-01T09:59:54;5.90;99.90
9640;DHT22;51745;50.872;4.732;2023-02-01T10:02:44;6.20;99.90
9640;DHT22;51745;50.872;4.732;2023-02-01T10:05:42;6.00;99.90
9640;DHT22;51745;50.872;4.732;2023-02-01T10:08:33;6.10;99.90
9640;DHT22;51745;50.872;4.732;2023-02-01T10:11:26;6.20;99.90
9640;DHT22;51745;50.872;4.732;2023-02-01T10:14:44;6.70;99.90
9640;DHT22;51745;50.872;4.732;2023-02-01T10:17:39;6.60;99.90
9640;DHT22;51745;50.872;4.732;2023-02-01T10:20:36;6.30;99.90
9640;DHT22;51745;50.872;4.732;2023-02-01T10:23:48;6.60;99.90
9640;DHT22;51745;50.872;4.732;2023-02-01T10:26:42;6.50;99.90
9640;DHT22;51745;50.872;4.732;2023-02-01T10:29:37;7.10;99.90
9640;DHT22;51745;50.872;4.732;2023-02-01T10:32:29;6.80;99.90
9640;DHT22;51745;50.872;4.732;2023-02-01T10:35:18;9.60;99.90
9640;DHT22;51745;50.872;4.732;2023-02-01T10:38:12;7.00;99.90
9640;DHT22;51745;50.872;4.732;2023-02-01T10:41:03;7.10;99.90
9640;DHT22;51745;50.872;4.732;2023-02-01T10:43:57;7.10;99.90
9640;DHT22;51745;50.872;4.732;2023-02-01T10:46:50;7.20;99.90
9640;DHT22;51745;50.872;4.732;2023-02-01T10:49:45;7.30;99.90
9640;DHT22;51745;50.872;4.732;2023-02-01T10:52:36;8.60;99.90
9640;DHT22;51745;50.872;4.732;2023-02-01T10:55:35;6.30;99.90
9640;DHT22;51745;50.872;4.732;2023-02-01T10:58:26;7.70;99.90
9640;DHT22;51745;50.872;4.732;2023-02-01T11:01:16;8.80;99.90
9640;DHT22;51745;50.872;4.732;2023-02-01T11:04:09;7.70;99.90
9640;DHT22;51745;50.872;4.732;2023-02-01T11:07:05;7.80;99.90
9640;DHT22;51745;50.872;4.732;2023-02-01T11:09:56;7.90;99.90
9640;DHT22;51745;50.872;4.732;2023-02-01T11:12:44;8.10;99.90
9640;DHT22;51745;50.872;4.732;2023-02-01T11:15:42;8.10;99.90
9640;DHT22;51745;50.872;4.732;2023-02-01T11:18:31;8.20;99.90
9640;DHT22;51745;50.872;4.732;2023-02-01T11:21:19;8.50;99.90
9640;DHT22;51745;50.872;4.732;2023-02-01T11:24:11;8.50;99.90
9640;DHT22;51745;50.872;4.732;2023-02-01T11:27:22;8.50;99.90
9640;DHT22;51745;50.872;4.732;2023-02-01T11:30:15;8.50;99.90
9640;DHT22;51745;50.872;4.732;2023-02-01T11:33:06;8.50;99.90
9640;DHT22;51745;50.872;4.732;2023-02-01T11:35:57;8.60;99.90
9640;DHT22;51745;50.872;4.732;2023-02-01T11:38:51;8.60;99.90
9640;DHT22;51745;50.872;4.732;2023-02-01T11:41:44;9.00;99.90
9640;DHT22;51745;50.872;4.732;2023-02-01T11:44:45;8.70;99.90
9640;DHT22;51745;50.872;4.732;2023-02-01T11:47:39;8.70;99.90
9640;DHT22;51745;50.872;4.732;2023-02-01T11:50:29;9.20;99.90
9640;DHT22;51745;50.872;4.732;2023-02-01T11:53:25;9.30;99.90
9640;DHT22;51745;50.872;4.732;2023-02-01T11:56:18;9.60;99.90
9640;DHT22;51745;50.872;4.732;2023-02-01T11:59:13;9.50;99.90
9640;DHT22;51745;50.872;4.732;2023-02-01T12:02:12;11.70;99.90
9640;DHT22;51745;50.872;4.732;2023-02-01T12:05:12;9.10;99.90
9640;DHT22;51745;50.872;4.732;2023-02-01T12:08:13;9.20;99.90
9640;DHT22;51745;50.872;4.732;2023-02-01T12:11:10;9.30;99.90
9640;DHT22;51745;50.872;4.732;2023-02-01T12:14:13;9.30;99.90
9640;DHT22;51745;50.872;4.732;2023-02-01T12:17:18;11.40;99.90
9640;DHT22;51745;50.872;4.732;2023-02-01T12:20:13;8.10;99.90
9640;DHT22;51745;50.872;4.732;2023-02-01T12:23:14;7.50;99.90
9640;DHT22;51745;50.872;4.732;2023-02-01T12:26:09;9.30;99.90
9640;DHT22;51745;50.872;4.732;2023-02-01T12:29:09;9.40;99.90
9640;DHT22;51745;50.872;4.732;2023-02-01T12:32:09;9.40;99.90
9640;DHT22;51745;50.872;4.732;2023-02-01T12:38:06;10.20;99.90
9640;DHT22;51745;50.872;4.732;2023-02-01T12:41:01;9.90;99.90
9640;DHT22;51745;50.872;4.732;2023-02-01T12:43:52;9.70;99.90
9640;DHT22;51745;50.872;4.732;2023-02-01T12:46:45;10.00;99.90
9640;DHT22;51745;50.872;4.732;2023-02-01T12:49:43;9.70;99.90
9640;DHT22;51745;50.872;4.732;2023-02-01T12:52:35;9.60;99.90
9640;DHT22;51745;50.872;4.732;2023-02-01T12:55:28;9.60;99.90
9640;DHT22;51745;50.872;4.732;2023-02-01T12:58:22;9.50;99.90
9640;DHT22;51745;50.872;4.732;2023-02-01T13:01:15;9.40;99.90
9640;DHT22;51745;50.872;4.732;2023-02-01T13:04:05;8.50;99.90
9640;DHT22;51745;50.872;4.732;2023-02-01T13:07:04;8.90;99.90
9640;DHT22;51745;50.872;4.732;2023-02-01T13:09:55;9.60;99.90
9640;DHT22;51745;50.872;4.732;2023-02-01T13:12:48;9.50;99.90
9640;DHT22;51745;50.872;4.732;2023-02-01T13:15:39;11.40;99.90
9640;DHT22;51745;50.872;4.732;2023-02-01T13:18:32;9.60;99.90
9640;DHT22;51745;50.872;4.732;2023-02-01T13:21:25;9.70;99.90
9640;DHT22;51745;50.872;4.732;2023-02-01T13:24:20;9.70;99.90
9640;DHT22;51745;50.872;4.732;2023-02-01T13:27:10;9.60;99.90
9640;DHT22;51745;50.872;4.732;2023-02-01T13:29:59;9.60;99.90
9640;DHT22;51745;50.872;4.732;2023-02-01T13:32:57;9.90;99.90
9640;DHT22;51745;50.872;4.732;2023-02-01T13:36:15;12.40;99.90
9640;DHT22;51745;50.872;4.732;2023-02-01T13:42:20;9.80;99.90
9640;DHT22;51745;50.872;4.732;2023-02-01T13:45:13;9.80;99.90
9640;DHT22;51745;50.872;4.732;2023-02-01T13:48:03;9.70;99.90
9640;DHT22;51745;50.872;4.732;2023-02-01T13:50:52;9.80;99.90
9640;DHT22;51745;50.872;4.732;2023-02-01T13:53:44;9.70;99.90
9640;DHT22;51745;50.872;4.732;2023-02-01T13:56:40;9.70;99.90
9640;DHT22;51745;50.872;4.732;2023-02-01T14:03:10;9.60;99.90
9640;DHT22;51745;50.872;4.732;2023-02-01T14:09:18;9.60;99.90
9640;DHT22;51745;50.872;4.732;2023-02-01T14:15:20;9.50;99.90
9640;DHT22;51745;50.872;4.732;2023-02-01T14:21:16;9.70;99.90
9640;DHT22;51745;50.872;4.732;2023-02-01T14:24:14;9.70;99.90
9640;DHT22;51745;50.872;4.732;2023-02-01T14:27:14;8.60;99.90
9640;DHT22;51745;50.872;4.732;2023-02-01T14:30:05;9.70;99.90
9640;DHT22;51745;50.872;4.732;2023-02-01T14:32:53;9.70;99.90
9640;DHT22;51745;50.872;4.732;2023-02-01T14:35:41;9.40;99.90
9640;DHT22;51745;50.872;4.732;2023-02-01T14:38:31;11.90;99.90
9640;DHT22;51745;50.872;4.732;2023-02-01T14:41:24;9.70;99.90
9640;DHT22;51745;50.872;4.732;2023-02-01T14:44:21;9.50;99.90
9640;DHT22;51745;50.872;4.732;2023-02-01T14:50:31;9.80;99.90
9640;DHT22;51745;50.872;4.732;2023-02-01T14:53:23;9.40;99.90
9640;DHT22;51745;50.872;4.732;2023-02-01T14:56:17;9.30;99.90
9640;DHT22;51745;50.872;4.732;2023-02-01T14:59:12;9.30;99.90
9640;DHT22;51745;50.872;4.732;2023-02-01T15:02:02;9.20;99.90
9640;DHT22;51745;50.872;4.732;2023-02-01T15:05:14;9.10;99.90
9640;DHT22;51745;50.872;4.732;2023-02-01T15:08:12;9.30;99.90
9640;DHT22;51745;50.872;4.732;2023-02-01T15:11:02;10.20;99.90
9640;DHT22;51745;50.872;4.732;2023-02-01T15:13:54;9.40;99.90
9640;DHT22;51745;50.872;4.732;2023-02-01T15:16:42;9.40;99.90
9640;DHT22;51745;50.872;4.732;2023-02-01T15:19:36;9.10;99.90
9640;DHT22;51745;50.872;4.732;2023-02-01T15:22:26;9.00;99.90
9640;DHT22;51745;50.872;4.732;2023-02-01T15:25:18;9.30;99.90
9640;DHT22;51745;50.872;4.732;2023-02-01T15:28:09;9.00;99.90
9640;DHT22;51745;50.872;4.732;2023-02-01T15:31:02;8.90;99.90
9640;DHT22;51745;50.872;4.732;2023-02-01T15:33:57;8.80;99.90
9640;DHT22;51745;50.872;4.732;2023-02-01T15:36:49;7.50;99.90
9640;DHT22;51745;50.872;4.732;2023-02-01T15:43:11;9.40;99.90
9640;DHT22;51745;50.872;4.732;2023-02-01T15:46:02;8.90;99.90
9640;DHT22;51745;50.872;4.732;2023-02-01T15:48:52;8.90;99.90
9640;DHT22;51745;50.872;4.732;2023-02-01T15:51:43;8.80;99.90
9640;DHT22;51745;50.872;4.732;2023-02-01T15:54:40;9.00;99.90
9640;DHT22;51745;50.872;4.732;2023-02-01T16:00:19;8.80;99.90
9640;DHT22;51745;50.872;4.732;2023-02-01T16:08:53;8.70;99.90
9640;DHT22;51745;50.872;4.732;2023-02-01T16:11:46;9.00;99.90
9640;DHT22;51745;50.872;4.732;2023-02-01T16:14:35;8.70;99.90
9640;DHT22;51745;50.872;4.732;2023-02-01T16:17:22;9.40;99.90
9640;DHT22;51745;50.872;4.732;2023-02-01T16:23:01;8.80;99.90
9640;DHT22;51745;50.872;4.732;2023-02-01T16:25:53;8.70;99.90
9640;DHT22;51745;50.872;4.732;2023-02-01T16:28:40;8.70;99.90
9640;DHT22;51745;50.872;4.732;2023-02-01T16:31:29;8.70;99.90
9640;DHT22;51745;50.872;4.732;2023-02-01T16:34:18;8.50;99.90
9640;DHT22;51745;50.872;4.732;2023-02-01T16:37:09;8.40;99.90
9640;DHT22;51745;50.872;4.732;2023-02-01T16:39:58;8.20;99.90
9640;DHT22;51745;50.872;4.732;2023-02-01T16:42:47;9.90;99.90
9640;DHT22;51745;50.872;4.732;2023-02-01T16:45:40;9.80;99.90
9640;DHT22;51745;50.872;4.732;2023-02-01T16:48:31;8.00;99.90
9640;DHT22;51745;50.872;4.732;2023-02-01T16:51:20;8.30;99.90
9640;DHT22;51745;50.872;4.732;2023-02-01T16:54:09;8.40;99.90
9640;DHT22;51745;50.872;4.732;2023-02-01T16:56:58;8.20;99.90
9640;DHT22;51745;50.872;4.732;2023-02-01T16:59:47;8.40;99.90
9640;DHT22;51745;50.872;4.732;2023-02-01T17:02:35;8.50;99.90
9640;DHT22;51745;50.872;4.732;2023-02-01T17:05:25;8.20;99.90
9640;DHT22;51745;50.872;4.732;2023-02-01T17:08:14;8.30;99.90
9640;DHT22;51745;50.872;4.732;2023-02-01T17:11:05;8.20;99.90
9640;DHT22;51745;50.872;4.732;2023-02-01T17:13:55;9.20;99.90
9640;DHT22;51745;50.872;4.732;2023-02-01T17:16:48;8.30;99.90
9640;DHT22;51745;50.872;4.732;2023-02-01T17:19:39;10.30;99.90
9640;DHT22;51745;50.872;4.732;2023-02-01T17:22:26;8.80;99.90
9640;DHT22;51745;50.872;4.732;2023-02-01T17:25:14;8.20;99.90
9640;DHT22;51745;50.872;4.732;2023-02-01T17:28:03;8.60;99.90
9640;DHT22;51745;50.872;4.732;2023-02-01T17:30:51;8.70;99.90
9640;DHT22;51745;50.872;4.732;2023-02-01T17:33:40;8.30;99.90
9640;DHT22;51745;50.872;4.732;2023-02-01T17:36:30;8.50;99.90
9640;DHT22;51745;50.872;4.732;2023-02-01T17:39:18;8.30;99.90
9640;DHT22;51745;50.872;4.732;2023-02-01T17:42:24;8.20;99.90
9640;DHT22;51745;50.872;4.732;2023-02-01T17:45:17;8.50;99.90
9640;DHT22;51745;50.872;4.732;2023-02-01T17:48:07;8.10;99.90
9640;DHT22;51745;50.872;4.732;2023-02-01T17:50:58;8.20;99.90
9640;DHT22;51745;50.872;4.732;2023-02-01T17:53:47;10.70;99.90
9640;DHT22;51745;50.872;4.732;2023-02-01T17:56:36;7.00;99.90
9640;DHT22;51745;50.872;4.732;2023-02-01T17:59:23;8.20;99.90
9640;DHT22;51745;50.872;4.732;2023-02-01T18:02:15;10.10;99.90
9640;DHT22;51745;50.872;4.732;2023-02-01T18:05:09;8.30;99.90
9640;DHT22;51745;50.872;4.732;2023-02-01T18:08:01;8.30;99.90
9640;DHT22;51745;50.872;4.732;2023-02-01T18:10:50;8.40;99.90
9640;DHT22;51745;50.872;4.732;2023-02-01T18:13:38;8.50;99.90
9640;DHT22;51745;50.872;4.732;2023-02-01T18:16:26;8.10;99.90
9640;DHT22;51745;50.872;4.732;2023-02-01T18:19:13;8.20;99.90
9640;DHT22;51745;50.872;4.732;2023-02-01T18:22:04;8.20;99.90
9640;DHT22;51745;50.872;4.732;2023-02-01T18:24:57;8.20;99.90
9640;DHT22;51745;50.872;4.732;2023-02-01T18:27:45;8.10;99.90
9640;DHT22;51745;50.872;4.732;2023-02-01T18:30:33;8.00;99.90
9640;DHT22;51745;50.872;4.732;2023-02-01T18:33:22;8.00;99.90
9640;DHT22;51745;50.872;4.732;2023-02-01T18:36:11;8.00;99.90
9640;DHT22;51745;50.872;4.732;2023-02-01T18:39:00;8.00;99.90
9640;DHT22;51745;50.872;4.732;2023-02-01T18:41:55;7.80;99.90
9640;DHT22;51745;50.872;4.732;2023-02-01T18:44:42;8.00;99.90
9640;DHT22;51745;50.872;4.732;2023-02-01T18:47:31;7.90;99.90
9640;DHT22;51745;50.872;4.732;2023-02-01T18:50:22;8.00;99.90
9640;DHT22;51745;50.872;4.732;2023-02-01T18:53:13;7.90;99.90
9640;DHT22;51745;50.872;4.732;2023-02-01T18:56:03;8.40;99.90
9640;DHT22;51745;50.872;4.732;2023-02-01T18:58:53;7.90;99.90
9640;DHT22;51745;50.872;4.732;2023-02-01T19:01:43;6.50;99.90
9640;DHT22;51745;50.872;4.732;2023-02-01T19:04:31;9.40;99.90
9640;DHT22;51745;50.872;4.732;2023-02-01T19:07:20;8.00;99.90
9640;DHT22;51745;50.872;4.732;2023-02-01T19:10:13;6.70;99.90
9640;DHT22;51745;50.872;4.732;2023-02-01T19:13:02;9.90;99.90
9640;DHT22;51745;50.872;4.732;2023-02-01T19:15:51;9.30;99.90
9640;DHT22;51745;50.872;4.732;2023-02-01T19:18:41;9.10;99.90
9640;DHT22;51745;50.872;4.732;2023-02-01T19:21:29;8.00;99.90
9640;DHT22;51745;50.872;4.732;2023-02-01T19:24:19;7.70;99.90
9640;DHT22;51745;50.872;4.732;2023-02-01T19:27:09;8.00;99.90